Time;durP1;ratioP1;P1;durP2;ratioP2;P2;SDS_P1;SDS_P2;PMS_P1;PMS_P2;Temp;Humidity;BMP_temperature;BMP_pressure;BME280_temperature;BME280_humidity;BME280_pressure;Samples;Min_cycle;Max_cycle;Signal;HPM_P1;HPM_P2
2023/05/21 00:01:02;;;;;;;2.93;2.37;;;;;;;13.89;100.00;99148.41;5090245;28;20273;-71
2023/05/21 00:03:29;;;;;;;3.73;2.20;;;;;;;13.92;100.00;99135.28;5089882;28;20218;-71
2023/05/21 00:05:56;;;;;;;7.70;2.60;;;;;;;14.01;100.00;99133.69;5089878;28;20209;-70
2023/05/21 00:08:23;;;;;;;3.33;2.53;;;;;;;13.84;100.00;99136.88;5089772;28;20214;-71
2023/05/21 00:10:50;;;;;;;5.73;2.53;;;;;;;13.86;100.00;99140.16;5089878;28;20255;-71
2023/05/21 00:13:18;;;;;;;2.67;2.23;;;;;;;13.93;100.00;99131.78;5089933;28;20230;-71
2023/05/21 00:15:45;;;;;;;3.13;2.40;;;;;;;13.84;100.00;99132.56;5089513;28;20240;-70
2023/05/21 00:18:12;;;;;;;3.10;2.17;;;;;;;13.79;100.00;99132.16;5089518;28;20214;-70
2023/05/21 00:20:40;;;;;;;4.23;2.40;;;;;;;13.82;100.00;99130.13;5089971;28;20293;-70
2023/05/21 00:23:07;;;;;;;2.83;2.27;;;;;;;13.85;100.00;99123.91;5089946;28;20236;-74
2023/05/21 00:25:34;;;;;;;4.30;2.40;;;;;;;13.87;100.00;99127.16;5090107;28;20202;-71
2023/05/21 00:28:00;;;;;;;4.00;2.17;;;;;;;13.97;100.00;99122.06;5089839;28;20190;-74
2023/05/21 00:30:29;;;;;;;1.80;1.53;;;;;;;13.95;100.00;99121.38;5089976;28;20199;-74
2023/05/21 00:32:57;;;;;;;3.60;2.93;;;;;;;14.00;100.00;99111.50;5089588;28;20266;-70
2023/05/21 00:35:24;;;;;;;6.23;2.67;;;;;;;14.10;100.00;99119.22;5090051;28;20285;-74
2023/05/21 00:37:52;;;;;;;4.17;2.60;;;;;;;14.11;100.00;99113.97;5089492;28;20285;-71
2023/05/21 00:40:19;;;;;;;3.60;2.30;;;;;;;14.14;100.00;99113.72;5090011;28;20198;-74
2023/05/21 00:42:46;;;;;;;3.37;2.70;;;;;;;14.12;100.00;99110.44;5089595;28;20410;-74
2023/05/21 00:45:14;;;;;;;2.37;2.07;;;;;;;14.12;100.00;99110.44;5092858;28;20593;-74
2023/05/21 00:47:44;;;;;;;3.10;2.30;;;;;;;14.25;100.00;99107.59;5093706;28;20719;-70
2023/05/21 00:50:13;;;;;;;6.03;2.87;;;;;;;14.00;100.00;99103.78;5093406;28;20218;-74
2023/05/21 00:52:41;;;;;;;4.10;2.57;;;;;;;13.89;100.00;99098.75;5093236;28;20190;-74
2023/05/21 00:55:09;;;;;;;4.00;2.70;;;;;;;13.97;100.00;99094.59;5093571;28;20316;-74
2023/05/21 00:57:37;;;;;;;3.50;2.47;;;;;;;13.91;100.00;99091.75;5093550;28;20268;-74
2023/05/21 01:00:07;;;;;;;3.27;2.77;;;;;;;13.88;100.00;99086.88;5093297;28;20300;-74
2023/05/21 01:02:35;;;;;;;4.70;2.57;;;;;;;13.90;100.00;99085.75;5093507;28;20201;-71
2023/05/21 01:05:05;;;;;;;3.57;2.40;;;;;;;13.94;100.00;99084.56;5093251;28;20250;-70
2023/05/21 01:07:34;;;;;;;4.00;2.93;;;;;;;14.05;100.00;99088.78;5093129;28;20201;-74
2023/05/21 01:10:02;;;;;;;4.43;2.57;;;;;;;14.01;100.00;99080.50;5093292;28;20218;-74
2023/05/21 01:12:30;;;;;;;4.43;2.57;;;;;;;14.05;100.00;99075.94;5092981;28;20201;-70
2023/05/21 01:14:59;;;;;;;3.23;2.40;;;;;;;13.96;100.00;99069.00;5093329;28;20588;-74
2023/05/21 01:17:27;;;;;;;3.90;3.10;;;;;;;14.06;100.00;99067.28;5092921;28;20382;-71
2023/05/21 01:19:55;;;;;;;4.27;2.73;;;;;;;14.10;100.00;99062.66;5093078;28;20282;-71
2023/05/21 01:22:25;;;;;;;2.70;2.10;;;;;;;14.17;100.00;99062.00;5093197;28;20190;-75
2023/05/21 01:24:54;;;;;;;3.73;2.77;;;;;;;14.19;100.00;99054.97;5093172;28;20346;-70
2023/05/21 01:27:21;;;;;;;4.23;2.43;;;;;;;14.13;100.00;99060.63;5092611;28;20230;-71
2023/05/21 01:29:48;;;;;;;4.27;2.73;;;;;;;14.18;100.00;99061.06;5092781;28;20632;-70
2023/05/21 01:32:24;;;;;;;4.20;2.40;;;;;;;14.24;100.00;99063.09;5092595;28;20194;-74
2023/05/21 01:34:59;;;;;;;4.90;2.97;;;;;;;14.27;100.00;99073.09;5092501;28;20220;-74
2023/05/21 01:37:31;;;;;;;4.20;3.13;;;;;;;14.24;100.00;99068.22;5092779;28;20796;-71
2023/05/21 01:40:03;;;;;;;4.03;3.33;;;;;;;14.20;100.00;99077.16;5092849;28;20214;-74
2023/05/21 01:42:32;;;;;;;6.50;3.43;;;;;;;14.30;100.00;99073.78;5092500;28;20281;-71
2023/05/21 01:45:01;;;;;;;9.63;3.53;;;;;;;14.35;100.00;99074.19;5092346;28;20229;-70
2023/05/21 01:47:31;;;;;;;5.00;3.10;;;;;;;14.31;100.00;99067.69;5092832;28;20193;-74
2023/05/21 01:49:59;;;;;;;3.17;2.07;;;;;;;14.29;100.00;99065.25;5092698;28;20228;-70
2023/05/21 01:52:26;;;;;;;4.87;3.20;;;;;;;14.35;100.00;99069.88;5092125;28;20255;-70
2023/05/21 01:54:53;;;;;;;5.13;2.77;;;;;;;14.37;100.00;99072.28;5092258;28;20214;-74
2023/05/21 01:57:21;;;;;;;2.87;2.33;;;;;;;14.42;100.00;99064.97;5091802;28;20596;-71
2023/05/21 01:59:48;;;;;;;5.13;3.47;;;;;;;14.37;100.00;99067.16;5091971;28;20225;-70
2023/05/21 02:02:15;;;;;;;4.37;3.37;;;;;;;14.36;100.00;99060.38;5092081;28;20206;-74
2023/05/21 02:04:42;;;;;;;4.87;2.70;;;;;;;14.38;100.00;99061.88;5092251;28;20222;-70
2023/05/21 02:07:10;;;;;;;6.77;3.13;;;;;;;14.40;100.00;99059.19;5092210;28;20654;-71
2023/05/21 02:09:37;;;;;;;5.80;3.40;;;;;;;14.32;100.00;99053.91;5091859;28;20682;-70
2023/05/21 02:12:04;;;;;;;5.20;3.23;;;;;;;14.36;100.00;99060.38;5091788;28;20207;-73
2023/05/21 02:14:33;;;;;;;4.93;3.00;;;;;;;14.37;100.00;99067.16;5092267;28;20305;-74
2023/05/21 02:17:00;;;;;;;6.00;2.90;;;;;;;14.30;100.00;99072.03;5091863;28;20287;-74
2023/05/21 02:19:27;;;;;;;5.20;3.37;;;;;;;14.20;100.00;99064.31;5091587;28;20217;-74
2023/05/21 02:21:54;;;;;;;3.57;2.30;;;;;;;14.17;100.00;99067.16;5091809;28;20194;-70
2023/05/21 02:24:23;;;;;;;3.90;2.73;;;;;;;14.20;100.00;99061.75;5091751;28;20213;-74
2023/05/21 02:26:51;;;;;;;4.27;2.73;;;;;;;13.98;100.00;99064.56;5091834;28;20197;-74
2023/05/21 02:29:17;;;;;;;3.83;2.70;;;;;;;14.02;100.00;99061.59;5091741;28;20220;-71
2023/05/21 02:31:46;;;;;;;4.53;2.93;;;;;;;13.95;100.00;99062.25;5091950;28;20685;-70
2023/05/21 02:34:12;;;;;;;4.63;2.57;;;;;;;13.73;100.00;99063.28;5091311;28;20214;-73
2023/05/21 02:36:40;;;;;;;4.03;2.77;;;;;;;13.70;100.00;99064.38;5091600;28;20234;-70
2023/05/21 02:39:07;;;;;;;3.67;2.80;;;;;;;13.77;100.00;99065.47;5091662;28;20275;-70
2023/05/21 02:41:34;;;;;;;3.47;2.73;;;;;;;13.78;100.00;99067.06;5091534;28;20201;-70
2023/05/21 02:44:00;;;;;;;5.43;2.60;;;;;;;13.78;100.00;99064.50;5091390;28;20218;-70
2023/05/21 02:46:27;;;;;;;3.00;2.60;;;;;;;13.66;100.00;99073.25;5091342;28;20587;-70
2023/05/21 02:48:55;;;;;;;4.30;2.53;;;;;;;13.69;100.00;99067.06;5091304;28;20255;-71
2023/05/21 02:51:22;;;;;;;4.97;3.30;;;;;;;13.51;100.00;99079.72;5091374;28;20210;-70
2023/05/21 02:53:49;;;;;;;6.53;2.57;;;;;;;13.52;100.00;99081.34;5090812;28;20763;-73
2023/05/21 02:56:16;;;;;;;7.77;2.63;;;;;;;13.54;100.00;99075.13;5090995;28;20212;-74
2023/05/21 02:58:42;;;;;;;4.47;2.37;;;;;;;13.53;100.00;99082.97;5091256;28;20243;-74
2023/05/21 03:01:09;;;;;;;3.80;2.77;;;;;;;13.55;100.00;99075.94;5091139;28;20212;-70
2023/05/21 03:03:36;;;;;;;5.33;2.57;;;;;;;13.49;100.00;99091.88;5090690;28;20223;-74
2023/05/21 03:06:04;;;;;;;2.80;2.47;;;;;;;13.51;100.00;99085.66;5090991;28;20249;-74
2023/05/21 03:08:31;;;;;;;3.77;2.53;;;;;;;13.35;100.00;99088.72;5089636;28;20724;-74
2023/05/21 03:10:58;;;;;;;2.80;2.17;;;;;;;13.47;100.00;99083.50;5090840;28;20251;-74
2023/05/21 03:13:25;;;;;;;3.63;2.43;;;;;;;13.56;100.00;99087.84;5090808;28;20228;-74
2023/05/21 03:15:55;;;;;;;2.83;2.33;;;;;;;13.59;100.00;99085.03;5091036;28;20198;-74
2023/05/21 03:18:22;;;;;;;4.30;2.70;;;;;;;13.59;100.00;99085.03;5090671;28;20267;-70
2023/05/21 03:20:48;;;;;;;3.07;2.47;;;;;;;13.62;100.00;99092.47;5090510;28;20196;-74
2023/05/21 03:23:17;;;;;;;3.60;2.83;;;;;;;13.60;100.00;99096.91;5090396;28;20217;-71
2023/05/21 03:25:44;;;;;;;4.40;2.90;;;;;;;13.51;100.00;99090.78;5090815;28;20717;-74
2023/05/21 03:28:11;;;;;;;3.67;2.67;;;;;;;13.39;100.00;99091.03;5090296;28;20227;-71
2023/05/21 03:30:38;;;;;;;4.40;2.73;;;;;;;13.39;100.00;99091.03;5090694;28;20251;-71
2023/05/21 03:33:05;;;;;;;2.97;2.50;;;;;;;13.51;100.00;99085.66;5090381;28;20239;-72
2023/05/21 03:35:32;;;;;;;4.17;2.50;;;;;;;13.53;100.00;99085.53;5090556;28;20198;-74
2023/05/21 03:37:58;;;;;;;5.03;2.83;;;;;;;13.57;100.00;99090.28;5090088;28;20716;-74
2023/05/21 03:40:27;;;;;;;3.83;2.93;;;;;;;13.61;100.00;99084.88;5090489;28;20193;-72
2023/05/21 03:42:53;;;;;;;3.27;2.67;;;;;;;13.63;100.00;99088.94;5090186;28;20307;-75
2023/05/21 03:45:20;;;;;;;4.50;3.07;;;;;;;13.67;100.00;99082.63;5090355;28;20211;-75
2023/05/21 03:47:48;;;;;;;4.20;2.70;;;;;;;13.68;100.00;99086.81;5090171;28;20208;-75
2023/05/21 03:50:15;;;;;;;2.93;2.13;;;;;;;13.79;100.00;99083.31;5090644;28;20265;-71
2023/05/21 03:52:42;;;;;;;2.97;2.27;;;;;;;13.77;100.00;99080.88;5089972;28;20201;-75
2023/05/21 03:55:09;;;;;;;4.10;2.73;;;;;;;13.76;100.00;99073.31;5090212;28;20217;-75
2023/05/21 03:57:38;;;;;;;4.37;3.00;;;;;;;13.81;100.00;99071.13;5090190;28;20222;-75
2023/05/21 04:00:07;;;;;;;5.10;2.93;;;;;;;13.86;100.00;99075.91;5090246;28;20704;-71
2023/05/21 04:02:34;;;;;;;3.90;2.67;;;;;;;13.86;100.00;99081.84;5089836;28;20207;-76
2023/05/21 04:05:02;;;;;;;6.70;3.07;;;;;;;13.72;100.00;99083.03;5090037;28;20294;-71
2023/05/21 04:07:29;;;;;;;4.03;2.87;;;;;;;13.81;100.00;99084.78;5089997;28;20208;-71
2023/05/21 04:09:55;;;;;;;8.03;3.30;;;;;;;13.79;100.00;99084.13;5090078;28;20220;-71
2023/05/21 04:12:22;;;;;;;3.97;2.70;;;;;;;13.94;100.00;99097.44;5089626;28;20208;-71
2023/05/21 04:14:51;;;;;;;3.57;2.63;;;;;;;13.96;100.00;99094.72;5089964;28;20279;-76
2023/05/21 04:17:19;;;;;;;4.30;2.90;;;;;;;13.99;100.00;99099.59;5089676;28;20717;-71
2023/05/21 04:19:46;;;;;;;3.37;2.60;;;;;;;13.99;100.00;99097.00;5089120;28;20224;-71
2023/05/21 04:22:13;;;;;;;6.03;3.63;;;;;;;14.01;100.00;99097.69;5089701;28;20201;-71
2023/05/21 04:24:40;;;;;;;4.40;2.90;;;;;;;14.17;100.00;99098.00;5089727;28;20221;-77
2023/05/21 04:27:08;;;;;;;6.57;3.50;;;;;;;14.15;100.00;99099.09;5089905;28;20221;-77
2023/05/21 04:29:36;;;;;;;3.03;2.73;;;;;;;14.19;100.00;99090.94;5089953;28;20725;-71
2023/05/21 04:32:05;;;;;;;8.53;3.90;;;;;;;14.29;100.00;99090.97;5089683;28;20206;-77
2023/05/21 04:34:32;;;;;;;4.30;2.70;;;;;;;14.33;100.00;99099.22;5089873;28;20309;-71
2023/05/21 04:36:59;;;;;;;7.50;4.13;;;;;;;14.46;100.00;99097.22;5089491;28;20198;-71
2023/05/21 04:39:27;;;;;;;5.07;3.00;;;;;;;14.56;100.00;99092.91;5089511;28;20224;-75
2023/05/21 04:41:55;;;;;;;4.33;3.10;;;;;;;14.64;100.00;99092.22;5089669;28;20198;-77
2023/05/21 04:44:22;;;;;;;3.80;2.90;;;;;;;14.65;100.00;99094.66;5089488;28;20222;-77
2023/05/21 04:46:49;;;;;;;3.67;3.20;;;;;;;14.88;100.00;99092.59;5089408;28;20594;-71
2023/05/21 04:49:17;;;;;;;4.40;2.80;;;;;;;15.00;100.00;99098.41;5089380;28;20728;-77
2023/05/21 04:51:44;;;;;;;4.80;3.17;;;;;;;15.01;100.00;99097.47;5089525;28;20203;-71
2023/05/21 04:54:11;;;;;;;4.70;3.23;;;;;;;15.13;100.00;99098.94;5089473;28;20222;-77
2023/05/21 04:56:37;;;;;;;6.43;2.90;;;;;;;15.22;100.00;99091.31;5089773;28;20666;-71
2023/05/21 04:59:05;;;;;;;4.17;2.93;;;;;;;15.23;100.00;99103.25;5089793;28;20237;-77
2023/05/21 05:01:33;;;;;;;3.97;3.23;;;;;;;15.48;100.00;99100.03;5089459;28;20679;-76
2023/05/21 05:04:00;;;;;;;5.10;3.77;;;;;;;15.91;100.00;99106.38;5089541;28;20252;-72
2023/05/21 05:06:28;;;;;;;4.47;2.63;;;;;;;16.25;100.00;99116.06;5089380;28;20675;-77
2023/05/21 05:08:55;;;;;;;7.00;3.47;;;;;;;16.50;100.00;99112.75;5089316;28;20221;-77
2023/05/21 05:11:22;;;;;;;4.33;3.23;;;;;;;16.81;100.00;99114.97;5089171;28;20196;-72
2023/05/21 05:13:49;;;;;;;6.17;3.37;;;;;;;17.08;100.00;99126.16;5089070;28;20244;-72
2023/05/21 05:16:18;;;;;;;5.90;3.60;;;;;;;17.24;100.00;99120.25;5089343;28;20236;-78
2023/05/21 05:18:44;;;;;;;5.20;3.07;;;;;;;17.45;100.00;99127.63;5088989;28;20271;-77
2023/05/21 05:21:11;;;;;;;4.97;3.33;;;;;;;17.51;100.00;99127.03;5089123;28;20678;-71
2023/05/21 05:23:40;;;;;;;5.13;3.43;;;;;;;17.77;100.00;99126.97;5088890;28;20213;-71
2023/05/21 05:26:06;;;;;;;7.33;2.97;;;;;;;17.81;100.00;99128.34;5089284;28;20196;-72
2023/05/21 05:28:33;;;;;;;5.37;3.07;;;;;;;18.06;100.00;99126.63;5088860;28;20293;-71
2023/05/21 05:31:00;;;;;;;6.67;3.40;;;;;;;18.25;100.00;99121.16;5090799;28;20207;-76
2023/05/21 05:33:27;;;;;;;6.17;3.03;;;;;;;18.43;100.00;99123.63;5092386;28;20886;-76
2023/05/21 05:35:54;;;;;;;5.23;3.07;;;;;;;18.33;100.00;99123.78;5092901;28;20223;-71
2023/05/21 05:38:21;;;;;;;6.80;3.27;;;;;;;18.39;100.00;99121.53;5092390;28;20340;-71
2023/05/21 05:40:49;;;;;;;8.17;3.60;;;;;;;18.60;100.00;99121.84;5092569;28;20638;-72
2023/05/21 05:43:16;;;;;;;5.50;3.20;;;;;;;18.67;100.00;99114.25;5092573;28;20220;-71
2023/05/21 05:45:43;;;;;;;9.17;3.17;;;;;;;18.62;100.00;99114.75;5092550;28;20194;-75
2023/05/21 05:48:10;;;;;;;5.30;3.70;;;;;;;18.51;100.00;99110.69;5092133;28;20638;-71
2023/05/21 05:50:37;;;;;;;7.40;3.10;;;;;;;18.85;100.00;99106.31;5092561;28;20199;-76
2023/05/21 05:53:06;;;;;;;4.87;3.53;;;;;;;19.11;100.00;99106.97;5092552;28;20649;-75
2023/05/21 05:55:32;;;;;;;5.73;3.30;;;;;;;19.25;100.00;99107.25;5092403;28;20692;-75
2023/05/21 05:58:00;;;;;;;5.20;3.57;;;;;;;19.38;100.00;99113.53;5092209;28;20252;-75
2023/05/21 06:00:27;;;;;;;5.17;3.10;;;;;;;19.52;99.27;99114.63;5092565;28;20201;-71
2023/05/21 06:02:54;;;;;;;11.67;3.17;;;;;;;19.78;95.49;99121.34;5092388;28;20205;-70
2023/05/21 06:05:21;;;;;;;5.77;3.27;;;;;;;19.71;100.00;99103.06;5092271;28;20334;-74
2023/05/21 06:07:48;;;;;;;6.73;3.40;;;;;;;19.94;97.07;99108.28;5092211;28;20197;-74
2023/05/21 06:10:14;;;;;;;8.10;3.40;;;;;;;20.23;98.79;99106.84;5092118;28;20205;-69
2023/05/21 06:12:41;;;;;;;5.87;3.10;;;;;;;20.42;95.98;99106.38;5092024;28;20208;-70
2023/05/21 06:15:10;;;;;;;5.50;3.17;;;;;;;20.29;91.61;99106.94;5091768;28;20223;-74
2023/05/21 06:17:37;;;;;;;6.60;2.87;;;;;;;19.93;92.84;99111.06;5092083;28;20240;-73
2023/05/21 06:20:05;;;;;;;5.13;2.90;;;;;;;19.75;92.98;99106.13;5091750;28;20224;-72
2023/05/21 06:22:31;;;;;;;6.40;3.60;;;;;;;19.95;94.51;99104.72;5091847;28;20204;-73
2023/05/21 06:24:58;;;;;;;5.30;2.87;;;;;;;19.83;94.50;99101.69;5092014;28;20244;-70
2023/05/21 06:27:25;;;;;;;6.07;2.90;;;;;;;20.07;97.32;99097.34;5091860;28;20209;-73
2023/05/21 06:29:52;;;;;;;6.03;2.97;;;;;;;20.27;98.19;99093.31;5091949;28;20282;-71
2023/05/21 06:32:21;;;;;;;4.70;3.03;;;;;;;20.60;94.82;99102.72;5091528;28;20240;-70
2023/05/21 06:34:48;;;;;;;5.77;3.13;;;;;;;20.52;91.81;99093.97;5091553;28;20257;-70
2023/05/21 06:37:19;;;;;;;6.20;3.40;;;;;;;20.61;93.02;99094.72;5091741;28;20258;-72
2023/05/21 06:39:46;;;;;;;4.13;2.67;;;;;;;20.58;92.99;99101.06;5091534;28;20612;-72
2023/05/21 06:42:13;;;;;;;6.00;3.60;;;;;;;20.24;93.02;99092.88;5091029;28;20249;-68
2023/05/21 06:44:40;;;;;;;5.30;3.23;;;;;;;20.25;94.12;99100.50;5091416;28;20222;-72
2023/05/21 06:47:06;;;;;;;5.77;3.30;;;;;;;20.04;90.94;99093.34;5091235;28;20205;-73
2023/05/21 06:49:35;;;;;;;4.30;2.73;;;;;;;20.17;96.23;99097.13;5091414;28;20226;-69
2023/05/21 06:52:02;;;;;;;6.17;2.40;;;;;;;20.10;93.53;99092.66;5091444;28;20214;-73
2023/05/21 06:54:28;;;;;;;4.23;2.77;;;;;;;20.05;93.52;99099.31;5091591;28;20277;-73
2023/05/21 06:56:55;;;;;;;7.00;3.90;;;;;;;19.97;95.90;99094.97;5091181;28;20471;-69
2023/05/21 06:59:22;;;;;;;7.07;3.80;;;;;;;20.17;95.34;99097.13;5091308;28;20239;-69
2023/05/21 07:01:49;;;;;;;5.73;3.50;;;;;;;20.26;97.82;99080.53;5091227;28;20206;-73
2023/05/21 07:04:16;;;;;;;8.67;3.97;;;;;;;20.46;98.21;99080.88;5091159;28;20242;-72
2023/05/21 07:06:44;;;;;;;5.83;3.93;;;;;;;20.86;97.35;99084.94;5090988;28;20196;-70
2023/05/21 07:09:10;;;;;;;3.83;2.70;;;;;;;21.15;92.85;99085.94;5090959;28;20310;-69
2023/05/21 07:11:37;;;;;;;6.13;3.50;;;;;;;21.30;90.29;99089.34;5090953;28;20624;-73
2023/05/21 07:14:04;;;;;;;4.27;2.63;;;;;;;21.49;91.97;99080.22;5090814;28;20235;-69
2023/05/21 07:16:31;;;;;;;4.23;2.90;;;;;;;21.56;90.26;99077.72;5091066;28;20705;-74
2023/05/21 07:18:58;;;;;;;5.77;3.20;;;;;;;21.46;90.11;99070.97;5090810;28;20241;-71
2023/05/21 07:21:24;;;;;;;5.27;3.20;;;;;;;21.72;92.16;99074.88;5090915;28;20479;-73
2023/05/21 07:23:53;;;;;;;9.17;3.30;;;;;;;21.88;93.39;99076.47;5090309;28;20217;-73
2023/05/21 07:26:20;;;;;;;5.65;3.53;;;;;;;22.03;93.25;99073.81;5090656;28;20191;-71
2023/05/21 07:28:46;;;;;;;3.78;2.78;;;;;;;22.10;90.12;99072.88;5090413;28;20709;-73
2023/05/21 07:31:13;;;;;;;4.50;3.17;;;;;;;22.31;88.63;99079.94;5090545;28;20190;-70
2023/05/21 07:33:40;;;;;;;6.00;3.80;;;;;;;22.34;87.71;99076.97;5090338;28;20214;-70
2023/05/21 07:36:07;;;;;;;5.93;3.38;;;;;;;22.50;86.54;99072.47;5090403;28;20289;-74
2023/05/21 07:38:34;;;;;;;5.70;3.45;;;;;;;22.30;90.35;99074.91;5090139;28;20244;-73
2023/05/21 07:41:02;;;;;;;4.15;3.35;;;;;;;22.48;85.81;99071.84;5090622;28;20285;-71
2023/05/21 07:43:29;;;;;;;4.18;3.00;;;;;;;22.51;85.56;99076.69;5090368;28;20252;-70
2023/05/21 07:45:56;;;;;;;7.47;3.63;;;;;;;22.58;84.50;99078.34;5090258;28;20205;-74
2023/05/21 07:48:22;;;;;;;6.55;3.97;;;;;;;22.78;86.19;99078.50;5089925;28;20217;-74
2023/05/21 07:50:51;;;;;;;6.00;3.58;;;;;;;22.70;83.23;99078.66;5090075;28;20198;-71
2023/05/21 07:53:18;;;;;;;5.50;2.72;;;;;;;22.83;82.73;99081.34;5089456;28;20214;-71
2023/05/21 07:55:47;;;;;;;7.80;3.60;;;;;;;22.97;81.86;99086.69;5090161;28;20720;-71
2023/05/21 07:58:16;;;;;;;5.72;3.58;;;;;;;23.14;85.78;99082.78;5089808;28;20729;-71
2023/05/21 08:00:45;;;;;;;4.55;3.08;;;;;;;23.18;83.11;99081.38;5090163;28;20251;-74
2023/05/21 08:03:15;;;;;;;3.97;3.15;;;;;;;23.33;82.23;99085.66;5089930;28;20218;-74
2023/05/21 08:05:43;;;;;;;5.32;3.20;;;;;;;23.34;82.83;99082.88;5090127;28;20198;-72
2023/05/21 08:08:10;;;;;;;4.78;3.45;;;;;;;23.43;82.61;99075.69;5089973;28;20226;-75
2023/05/21 08:10:37;;;;;;;5.32;3.40;;;;;;;23.72;80.62;99083.25;5090018;28;20198;-75
2023/05/21 08:13:04;;;;;;;4.90;3.08;;;;;;;23.84;80.73;99082.69;5089728;28;20267;-75
2023/05/21 08:15:32;;;;;;;4.68;3.03;;;;;;;24.03;88.30;99084.56;5090279;28;20729;-71
2023/05/21 08:17:59;;;;;;;5.15;3.17;;;;;;;23.84;79.92;99077.47;5089997;28;20202;-75
2023/05/21 08:20:26;;;;;;;4.57;2.72;;;;;;;23.69;76.62;99086.22;5089855;28;20338;-75
2023/05/21 08:22:53;;;;;;;6.07;3.15;;;;;;;23.95;78.76;99082.13;5089775;28;20201;-75
2023/05/21 08:25:20;;;;;;;6.18;3.30;;;;;;;23.87;78.05;99083.09;5089901;28;20682;-75
2023/05/21 08:27:47;;;;;;;4.63;3.17;;;;;;;24.17;76.50;99078.34;5089717;28;20194;-75
2023/05/21 08:30:14;;;;;;;3.92;3.03;;;;;;;24.12;76.31;99075.53;5089816;28;20260;-71
2023/05/21 08:32:42;;;;;;;4.30;3.38;;;;;;;24.00;71.66;99084.13;5089515;28;20681;-74
2023/05/21 08:35:09;;;;;;;8.30;3.42;;;;;;;24.33;76.13;99078.97;5089819;28;20641;-71
2023/05/21 08:37:36;;;;;;;5.05;3.30;;;;;;;24.30;78.40;99071.53;5089692;28;20623;-71
2023/05/21 08:40:04;;;;;;;4.30;2.92;;;;;;;24.69;79.28;99083.00;5089425;28;20791;-75
2023/05/21 08:42:39;;;;;;;4.78;3.78;;;;;;;24.20;74.23;99078.94;5089538;28;20198;-75
2023/05/21 08:45:07;;;;;;;4.78;3.35;;;;;;;23.90;72.75;99082.69;5089503;28;20221;-71
2023/05/21 08:47:35;;;;;;;5.13;3.50;;;;;;;23.75;71.52;99083.88;5089425;28;20198;-71
2023/05/21 08:50:05;;;;;;;4.43;3.38;;;;;;;24.49;74.01;99083.00;5089384;28;20294;-71
2023/05/21 08:52:32;;;;;;;5.45;3.38;;;;;;;24.09;74.42;99082.97;5089586;28;20711;-75
2023/05/21 08:55:00;;;;;;;5.78;2.80;;;;;;;24.22;70.38;99084.78;5089450;28;20744;-71
2023/05/21 08:57:28;;;;;;;5.72;3.50;;;;;;;24.76;72.33;99091.69;5089506;28;20244;-75
2023/05/21 08:59:55;;;;;;;4.40;2.95;;;;;;;24.59;68.51;99094.69;5089411;28;20733;-75
2023/05/21 09:02:23;;;;;;;6.50;3.10;;;;;;;24.54;73.07;99088.44;5089582;28;20198;-71
2023/05/21 09:04:56;;;;;;;4.72;3.20;;;;;;;24.72;71.72;99091.25;5090594;28;20313;-75
2023/05/21 09:07:28;;;;;;;6.30;3.53;;;;;;;24.49;69.07;99086.44;5093309;28;20290;-71
2023/05/21 09:09:56;;;;;;;6.63;3.35;;;;;;;24.70;70.66;99092.47;5093285;28;20702;-75
2023/05/21 09:12:24;;;;;;;5.60;3.17;;;;;;;24.86;73.12;99092.06;5093324;28;20209;-75
2023/05/21 09:14:51;;;;;;;3.45;2.72;;;;;;;25.24;70.74;99092.19;5093463;28;20267;-71
2023/05/21 09:17:19;;;;;;;5.75;3.47;;;;;;;25.00;70.52;99093.66;5092990;28;20199;-71
2023/05/21 09:20:07;;;;;;;5.68;3.28;;;;;;;25.49;71.45;99092.34;5093274;28;20284;-72
2023/05/21 09:22:36;;;;;;;3.78;2.95;;;;;;;25.19;70.74;99096.44;5093340;28;20252;-72
2023/05/21 09:25:06;;;;;;;4.70;3.35;;;;;;;25.14;67.79;99094.47;5093288;28;20243;-72
2023/05/21 09:27:34;;;;;;;7.30;3.33;;;;;;;25.53;70.42;99098.75;5093390;28;20216;-73
2023/05/21 09:30:02;;;;;;;4.80;3.05;;;;;;;25.53;65.88;99090.91;5093061;28;20332;-76
2023/05/21 09:32:28;;;;;;;5.07;3.20;;;;;;;25.56;63.26;99099.34;5092715;28;20248;-72
2023/05/21 09:34:55;;;;;;;7.90;3.40;;;;;;;25.80;70.05;99093.38;5092896;28;20226;-76
2023/05/21 09:37:22;;;;;;;4.78;3.22;;;;;;;25.84;70.70;99093.81;5092686;28;20666;-72
2023/05/21 09:39:51;;;;;;;4.40;3.28;;;;;;;25.97;70.35;99094.53;5092689;28;20782;-72
2023/05/21 09:42:20;;;;;;;3.58;3.03;;;;;;;25.55;72.91;99089.91;5092609;28;20281;-75
2023/05/21 09:44:47;;;;;;;4.40;3.38;;;;;;;25.65;65.63;99090.25;5092795;28;20272;-75
2023/05/21 09:47:19;;;;;;;4.18;3.13;;;;;;;26.01;73.17;99091.53;5092355;28;20689;-72
2023/05/21 09:49:46;;;;;;;4.30;3.08;;;;;;;25.80;65.87;99088.16;5092241;28;20229;-72
2023/05/21 09:52:13;;;;;;;4.28;3.10;;;;;;;25.87;74.28;99088.97;5092342;28;20198;-75
2023/05/21 09:54:40;;;;;;;4.47;3.17;;;;;;;26.08;70.32;99079.97;5092367;28;20244;-75
2023/05/21 09:57:08;;;;;;;4.47;2.58;;;;;;;26.31;68.09;99092.50;5092345;28;20255;-76
2023/05/21 09:59:39;;;;;;;6.28;3.10;;;;;;;26.57;67.65;99088.13;5092344;28;20244;-75
2023/05/21 10:02:16;;;;;;;4.57;2.92;;;;;;;26.52;73.10;99080.09;5092410;28;20256;-71
2023/05/21 10:04:47;;;;;;;6.75;3.17;;;;;;;26.39;62.86;99094.06;5092567;28;20228;-75
2023/05/21 10:07:16;;;;;;;4.68;2.92;;;;;;;26.42;65.92;99094.44;5092196;28;20210;-75
2023/05/21 10:09:46;;;;;;;6.43;3.28;;;;;;;26.18;66.67;99084.75;5092044;28;20230;-75
2023/05/21 10:12:17;;;;;;;5.95;3.42;;;;;;;25.49;64.67;99084.47;5092122;28;20202;-75
2023/05/21 10:14:49;;;;;;;4.78;2.78;;;;;;;24.94;68.75;99085.81;5092099;28;20218;-75
2023/05/21 10:17:17;;;;;;;5.82;3.42;;;;;;;25.86;64.98;99079.50;5091227;28;20709;-71
2023/05/21 10:19:44;;;;;;;4.28;3.35;;;;;;;26.35;67.80;99075.31;5092167;28;20230;-74
2023/05/21 10:22:11;;;;;;;4.25;3.20;;;;;;;25.91;63.46;99079.66;5092135;28;20232;-72
2023/05/21 10:24:40;;;;;;;7.22;3.63;;;;;;;25.80;62.80;99075.06;5091886;28;20359;-71
2023/05/21 10:27:07;;;;;;;4.63;3.42;;;;;;;26.32;66.39;99069.72;5091730;28;20202;-71
2023/05/21 10:29:37;;;;;;;4.03;2.88;;;;;;;26.68;64.38;99070.88;5091633;28;20279;-75
2023/05/21 10:32:06;;;;;;;4.15;2.90;;;;;;;26.72;60.73;99069.41;5091871;28;20220;-75
2023/05/21 10:34:34;;;;;;;3.67;3.00;;;;;;;26.78;62.56;99071.97;5091845;28;20222;-72
2023/05/21 10:37:02;;;;;;;5.10;3.17;;;;;;;26.88;62.32;99074.13;5091619;28;20255;-71
2023/05/21 10:39:30;;;;;;;5.68;3.10;;;;;;;27.18;59.30;99068.97;5091763;28;20238;-75
2023/05/21 10:42:14;;;;;;;4.35;3.28;;;;;;;26.68;66.26;99063.00;5091549;28;20681;-75
2023/05/21 10:44:58;;;;;;;4.72;2.90;;;;;;;26.57;62.46;99061.88;5091433;28;20218;-71
2023/05/21 10:48:03;;;;;;;3.88;2.72;;;;;;;26.14;63.86;99063.38;5091304;28;20267;-74
2023/05/21 10:51:02;;;;;;;6.57;3.08;;;;;;;26.66;67.18;99049.31;5091831;28;20209;-71
2023/05/21 10:53:40;;;;;;;4.93;3.15;;;;;;;27.03;62.53;99050.16;5066076;28;20232;-75
2023/05/21 10:56:18;;;;;;;4.45;3.15;;;;;;;27.34;63.93;99045.78;5091104;28;20208;-71
2023/05/21 10:59:06;;;;;;;5.00;3.35;;;;;;;27.48;62.23;99062.97;5090934;28;20217;-71
2023/05/21 11:01:37;;;;;;;5.15;3.42;;;;;;;27.44;64.74;99056.56;5091086;28;20205;-72
2023/05/21 11:04:05;;;;;;;3.25;2.53;;;;;;;27.21;62.61;99052.78;5091138;28;20224;-72
2023/05/21 11:06:32;;;;;;;7.20;3.20;;;;;;;27.12;60.02;99046.19;5091587;28;20289;-73
2023/05/21 11:09:02;;;;;;;3.15;2.70;;;;;;;27.40;61.25;99044.88;5090832;28;20275;-71
2023/05/21 11:11:43;;;;;;;3.80;2.75;;;;;;;27.02;56.95;99038.03;5091059;28;20206;-75
2023/05/21 11:14:34;;;;;;;7.32;3.10;;;;;;;27.02;60.71;99032.78;5090834;28;20257;-75
2023/05/21 11:17:03;;;;;;;6.30;2.88;;;;;;;27.22;61.76;99041.25;5090898;28;20259;-76
2023/05/21 11:19:35;;;;;;;3.70;2.63;;;;;;;27.20;58.78;99035.44;5090896;28;20697;-72
2023/05/21 11:22:07;;;;;;;5.00;3.33;;;;;;;27.21;58.03;99036.25;5090872;28;20698;-75
2023/05/21 11:24:37;;;;;;;4.78;3.00;;;;;;;26.69;58.96;99028.69;5090584;28;20275;-72
2023/05/21 11:27:05;;;;;;;4.75;3.05;;;;;;;26.62;58.50;99013.03;5090922;28;20582;-76
2023/05/21 11:29:47;;;;;;;3.67;2.92;;;;;;;26.49;65.85;99026.22;5089703;28;20222;-76
2023/05/21 11:32:19;;;;;;;4.93;3.08;;;;;;;26.45;63.32;99022.44;5088202;28;20594;-76
2023/05/21 11:34:47;;;;;;;3.15;2.53;;;;;;;26.22;65.47;99023.03;5090508;28;20233;-75